Time;durP1;ratioP1;P1;durP2;ratioP2;P2;SDS_P1;SDS_P2;PMS_P1;PMS_P2;Temp;Humidity;BMP_temperature;BMP_pressure;BME280_temperature;BME280_humidity;BME280_pressure;Samples;Min_cycle;Max_cycle;Signal;HPM_P1;HPM_P2
2022/10/01 00:00:55;;;;;;;3.10;2.80;;;11.60;99.90;;;;;;5070310;28;20221;-82
2022/10/01 00:03:25;;;;;;;4.53;4.13;;;11.60;99.90;;;;;;5050594;28;20248;-82
2022/10/01 00:06:18;;;;;;;4.17;3.43;;;11.60;99.90;;;;;;5076374;28;20180;-82
2022/10/01 00:08:47;;;;;;;4.17;3.10;;;11.50;99.90;;;;;;5068309;28;20185;-80
2022/10/01 00:11:22;;;;;;;2.50;2.30;;;11.50;99.90;;;;;;5066869;28;20229;-79
2022/10/01 00:13:48;;;;;;;2.60;2.20;;;11.50;99.90;;;;;;5072709;28;20225;-80
2022/10/01 00:16:18;;;;;;;3.27;2.80;;;11.50;99.90;;;;;;5065376;28;20241;-80
2022/10/01 00:18:45;;;;;;;8.03;2.67;;;11.50;99.90;;;;;;5068084;28;20306;-83
2022/10/01 00:21:14;;;;;;;3.60;2.67;;;11.50;99.90;;;;;;5067630;28;20334;-79
2022/10/01 00:23:41;;;;;;;5.17;3.67;;;11.50;99.90;;;;;;5067319;28;20726;-81
2022/10/01 00:26:14;;;;;;;2.53;1.90;;;11.40;99.90;;;;;;5069089;28;20819;-81
2022/10/01 00:28:41;;;;;;;4.00;3.43;;;11.40;99.90;;;;;;5067111;28;20212;-82
2022/10/01 00:31:09;;;;;;;3.83;3.30;;;11.50;99.90;;;;;;5069685;28;20223;-80
2022/10/01 00:33:35;;;;;;;4.43;3.23;;;11.50;99.90;;;;;;5070953;28;20213;-80
2022/10/01 00:36:02;;;;;;;3.70;2.60;;;11.40;99.90;;;;;;5077990;28;20282;-82
2022/10/01 00:38:28;;;;;;;4.30;2.90;;;11.40;99.90;;;;;;5070925;28;20648;-82
2022/10/01 00:40:54;;;;;;;3.33;2.27;;;11.50;99.90;;;;;;5072258;28;20285;-82
2022/10/01 00:43:35;;;;;;;6.73;4.20;;;11.50;99.90;;;;;;5074760;28;20674;-81
2022/10/01 00:46:13;;;;;;;2.73;2.53;;;11.40;99.90;;;;;;5091619;28;20263;-82
2022/10/01 00:48:48;;;;;;;4.30;3.90;;;11.50;99.90;;;;;;5069073;28;20263;-80
2022/10/01 00:51:14;;;;;;;4.10;3.07;;;11.50;99.90;;;;;;5078028;28;20738;-84
2022/10/01 00:53:41;;;;;;;3.33;3.03;;;11.50;99.90;;;;;;5069863;28;20185;-82
2022/10/01 00:56:07;;;;;;;5.03;3.87;;;11.50;99.90;;;;;;5050617;28;20586;-81
2022/10/01 00:58:32;;;;;;;5.23;3.87;;;11.50;99.90;;;;;;5072204;28;20227;-81
2022/10/01 01:00:58;;;;;;;3.90;3.50;;;11.50;99.90;;;;;;5067566;28;20625;-82
2022/10/01 01:03:25;;;;;;;6.57;4.27;;;11.50;99.90;;;;;;5070840;28;20251;-78
2022/10/01 01:05:51;;;;;;;3.40;2.43;;;11.50;99.90;;;;;;5070524;28;20189;-80
2022/10/01 01:08:17;;;;;;;5.83;4.37;;;11.40;99.90;;;;;;5077173;28;20191;-83
2022/10/01 01:11:15;;;;;;;4.40;3.97;;;11.40;99.90;;;;;;5053364;28;20705;-82
2022/10/01 01:14:02;;;;;;;2.57;2.00;;;11.40;99.90;;;;;;5069693;28;20257;-80
2022/10/01 01:16:49;;;;;;;3.73;2.80;;;11.40;99.90;;;;;;5068528;28;20228;-81
2022/10/01 01:19:38;;;;;;;1.90;1.50;;;11.40;99.90;;;;;;5074198;28;20217;-82
2022/10/01 01:22:06;;;;;;;3.17;2.97;;;11.30;99.90;;;;;;5068367;28;20239;-83
2022/10/01 01:25:19;;;;;;;2.90;2.03;;;11.30;99.90;;;;;;5068372;28;20601;-84
2022/10/01 01:28:03;;;;;;;2.43;1.90;;;11.40;99.90;;;;;;5070409;28;20699;-80
2022/10/01 01:30:31;;;;;;;4.50;2.27;;;11.40;99.90;;;;;;5065854;28;20617;-79
2022/10/01 01:33:04;;;;;;;3.27;3.07;;;11.40;99.90;;;;;;5070614;28;20189;-83
2022/10/01 01:35:35;;;;;;;3.17;2.63;;;11.30;99.90;;;;;;5073641;28;20216;-83
2022/10/01 01:38:09;;;;;;;3.43;2.47;;;11.40;99.90;;;;;;5067117;28;20233;-80
2022/10/01 01:40:38;;;;;;;1.93;1.50;;;11.40;99.90;;;;;;5068559;28;20339;-82
2022/10/01 01:43:14;;;;;;;2.97;2.17;;;11.40;99.90;;;;;;5068268;28;20889;-80
2022/10/01 01:45:41;;;;;;;2.07;1.67;;;11.40;99.90;;;;;;5071784;28;20242;-85
2022/10/01 01:48:08;;;;;;;1.37;1.10;;;11.40;99.90;;;;;;5067107;28;20211;-82
2022/10/01 01:50:48;;;;;;;2.37;2.17;;;11.50;99.90;;;;;;5067871;28;20197;-80
2022/10/01 01:53:14;;;;;;;4.23;2.77;;;11.50;99.90;;;;;;5072198;28;20209;-80
2022/10/01 01:55:41;;;;;;;1.90;1.60;;;11.50;99.90;;;;;;5069793;28;20232;-81
2022/10/01 01:58:07;;;;;;;2.70;1.97;;;11.50;99.90;;;;;;5068479;28;20227;-79
2022/10/01 02:00:33;;;;;;;1.97;1.77;;;11.50;99.90;;;;;;5051515;28;20209;-81
2022/10/01 02:02:59;;;;;;;2.17;1.97;;;11.50;99.90;;;;;;5066397;28;20206;-81
2022/10/01 02:05:34;;;;;;;2.60;2.10;;;11.60;99.90;;;;;;5073363;28;20230;-80
2022/10/01 02:08:26;;;;;;;2.43;2.20;;;11.50;99.90;;;;;;5067978;28;20764;-82
2022/10/01 02:11:23;;;;;;;2.63;2.20;;;11.60;99.90;;;;;;5071267;28;20236;-80
2022/10/01 02:14:03;;;;;;;1.43;1.33;;;11.60;99.90;;;;;;5070963;28;20959;-81
2022/10/01 02:16:55;;;;;;;1.67;1.40;;;11.70;99.90;;;;;;5070346;28;20246;-83
2022/10/01 02:19:35;;;;;;;7.50;2.33;;;11.70;99.90;;;;;;5067786;28;20228;-79
2022/10/01 02:22:11;;;;;;;2.30;2.00;;;11.70;99.90;;;;;;5070572;28;20224;-81
2022/10/01 02:24:43;;;;;;;2.63;2.23;;;11.70;99.90;;;;;;5066432;28;20213;-79
2022/10/01 02:27:19;;;;;;;2.20;2.00;;;11.70;99.90;;;;;;5071211;28;20559;-80
2022/10/01 02:29:47;;;;;;;2.37;2.17;;;11.80;99.90;;;;;;5067022;28;20199;-79
2022/10/01 02:32:14;;;;;;;2.87;2.57;;;11.80;99.90;;;;;;5064204;28;20787;-79
2022/10/01 02:34:43;;;;;;;2.93;2.30;;;11.80;99.90;;;;;;5072086;28;20218;-82
2022/10/01 02:37:10;;;;;;;2.97;2.67;;;11.80;99.90;;;;;;5068306;28;20298;-79
2022/10/01 02:39:39;;;;;;;3.30;2.47;;;11.90;99.90;;;;;;5048635;28;20217;-81
2022/10/01 02:42:08;;;;;;;1.00;1.00;;;11.90;99.90;;;;;;5066457;28;20185;-82
2022/10/01 02:44:39;;;;;;;2.93;2.00;;;11.90;99.90;;;;;;5069582;28;20181;-81
2022/10/01 02:47:20;;;;;;;1.63;1.50;;;11.90;99.90;;;;;;5070896;28;20281;-80
2022/10/01 02:49:48;;;;;;;7.40;2.17;;;12.00;99.90;;;;;;5067697;28;20278;-82
2022/10/01 02:52:57;;;;;;;0.90;0.83;;;12.00;99.90;;;;;;5070449;28;20221;-80
2022/10/01 02:55:27;;;;;;;1.37;1.27;;;12.10;99.90;;;;;;5031052;28;20232;-81
2022/10/01 02:57:56;;;;;;;1.17;1.10;;;12.10;99.90;;;;;;5073547;28;20216;-82
2022/10/01 03:00:24;;;;;;;2.00;1.87;;;12.10;99.90;;;;;;5069829;28;20228;-82
2022/10/01 03:02:49;;;;;;;1.10;1.07;;;12.10;99.90;;;;;;5067483;28;20201;-82
2022/10/01 03:05:16;;;;;;;1.37;1.27;;;12.20;99.90;;;;;;5072240;28;20200;-85
2022/10/01 03:07:42;;;;;;;1.30;1.07;;;12.20;99.90;;;;;;5070697;28;20228;-79
2022/10/01 03:10:09;;;;;;;1.20;1.10;;;12.20;99.90;;;;;;5069136;28;20213;-78
2022/10/01 03:12:36;;;;;;;1.33;1.13;;;12.30;99.90;;;;;;5065931;28;20236;-80
2022/10/01 03:15:02;;;;;;;1.20;1.10;;;12.30;99.90;;;;;;5067870;28;20606;-81
2022/10/01 03:17:28;;;;;;;4.43;1.30;;;12.30;99.90;;;;;;5074786;28;20199;-82
2022/10/01 03:19:54;;;;;;;1.13;1.00;;;12.30;99.90;;;;;;5070074;28;20224;-78
2022/10/01 03:22:21;;;;;;;1.27;1.10;;;12.40;99.90;;;;;;5049414;28;20666;-81
2022/10/01 03:24:52;;;;;;;0.77;0.77;;;12.40;99.90;;;;;;5071021;28;20282;-79
2022/10/01 03:27:19;;;;;;;0.90;0.87;;;12.40;99.90;;;;;;5064348;28;20224;-79
2022/10/01 03:29:45;;;;;;;0.60;0.50;;;12.50;99.90;;;;;;5073792;28;20554;-79
2022/10/01 03:32:12;;;;;;;0.70;0.70;;;12.50;99.90;;;;;;5073594;28;20216;-79
2022/10/01 03:34:37;;;;;;;1.17;1.07;;;12.50;99.90;;;;;;5070580;28;20220;-81
2022/10/01 03:37:04;;;;;;;2.40;0.60;;;12.50;99.90;;;;;;5047657;28;20240;-80
2022/10/01 03:39:30;;;;;;;1.20;1.10;;;12.50;99.90;;;;;;5061397;28;20589;-83
2022/10/01 03:41:56;;;;;;;2.17;2.07;;;12.60;99.90;;;;;;5067136;28;20217;-82
2022/10/01 03:44:22;;;;;;;0.97;0.97;;;12.60;99.90;;;;;;5064511;28;20232;-79
2022/10/01 03:46:48;;;;;;;1.63;1.53;;;12.60;99.90;;;;;;5062639;28;20333;-82
2022/10/01 03:49:13;;;;;;;1.10;1.00;;;12.70;99.90;;;;;;5071188;28;20225;-81
2022/10/01 03:51:39;;;;;;;1.73;1.50;;;12.70;99.90;;;;;;5070534;28;20220;-81
2022/10/01 03:54:06;;;;;;;0.90;0.73;;;12.80;99.90;;;;;;5062743;28;20184;-82
2022/10/01 03:56:33;;;;;;;1.20;1.10;;;12.90;99.90;;;;;;5066135;28;20233;-80
2022/10/01 03:58:59;;;;;;;1.47;1.37;;;12.90;99.90;;;;;;5060758;28;20227;-82
2022/10/01 04:01:26;;;;;;;1.97;1.73;;;12.90;99.90;;;;;;5072352;28;20220;-81
2022/10/01 04:03:52;;;;;;;1.70;1.60;;;13.00;99.90;;;;;;5072120;28;20697;-80
2022/10/01 04:06:18;;;;;;;1.43;1.13;;;13.00;99.90;;;;;;5070562;28;20223;-81
2022/10/01 04:08:43;;;;;;;2.03;1.63;;;13.00;99.90;;;;;;5063808;28;20224;-81
2022/10/01 04:11:09;;;;;;;1.93;1.60;;;13.00;99.90;;;;;;5069060;28;20497;-79
2022/10/01 04:13:35;;;;;;;1.03;0.90;;;13.00;99.90;;;;;;5071143;28;20270;-80
2022/10/01 04:16:03;;;;;;;1.60;1.50;;;13.00;99.90;;;;;;5070168;28;20228;-80
2022/10/01 04:18:29;;;;;;;2.03;1.83;;;13.00;99.90;;;;;;5071775;28;20224;-80
2022/10/01 04:20:56;;;;;;;1.97;1.50;;;13.00;99.90;;;;;;5071060;28;20185;-81
2022/10/01 04:23:22;;;;;;;2.03;1.87;;;13.00;99.90;;;;;;5055196;28;20182;-80
2022/10/01 04:25:49;;;;;;;1.93;1.83;;;13.10;99.90;;;;;;5055438;28;20282;-80
2022/10/01 04:28:15;;;;;;;1.63;1.53;;;13.10;99.90;;;;;;5070640;28;20229;-80
2022/10/01 04:30:43;;;;;;;2.63;1.60;;;13.10;99.90;;;;;;5069033;28;20216;-79
2022/10/01 04:33:11;;;;;;;2.40;2.20;;;13.10;99.90;;;;;;5073752;28;20715;-79
2022/10/01 04:35:38;;;;;;;2.67;2.47;;;13.10;99.90;;;;;;5068260;28;20239;-79
2022/10/01 04:38:11;;;;;;;1.67;1.57;;;13.10;99.90;;;;;;5070285;28;20216;-80
2022/10/01 04:40:37;;;;;;;1.73;1.63;;;13.20;99.90;;;;;;5071683;28;20216;-83
2022/10/01 04:43:08;;;;;;;6.07;1.83;;;13.20;99.90;;;;;;5068261;28;20303;-82
2022/10/01 04:45:37;;;;;;;2.23;2.03;;;13.20;99.90;;;;;;5070579;28;20578;-81
2022/10/01 04:48:04;;;;;;;2.30;1.90;;;13.30;99.90;;;;;;5072159;28;20189;-80
2022/10/01 04:50:30;;;;;;;3.37;2.20;;;13.40;99.90;;;;;;5070198;28;20189;-79
2022/10/01 04:52:56;;;;;;;1.73;1.63;;;13.40;99.90;;;;;;5070839;28;20208;-82
2022/10/01 04:55:23;;;;;;;5.00;1.80;;;13.50;99.90;;;;;;5066255;28;20586;-79
2022/10/01 04:57:49;;;;;;;4.13;1.67;;;13.50;99.90;;;;;;5068223;28;20226;-80
2022/10/01 05:00:17;;;;;;;2.70;2.13;;;13.50;99.90;;;;;;5072154;28;20221;-81
2022/10/01 05:02:48;;;;;;;2.60;1.83;;;13.50;99.90;;;;;;5072001;28;20189;-81
2022/10/01 05:05:14;;;;;;;2.93;1.70;;;13.60;99.90;;;;;;5071983;28;20216;-80
2022/10/01 05:07:40;;;;;;;2.70;1.83;;;13.60;99.90;;;;;;5068126;28;20225;-79
2022/10/01 05:10:09;;;;;;;3.53;1.97;;;13.60;99.90;;;;;;5068740;28;20740;-81
2022/10/01 05:12:35;;;;;;;6.13;2.07;;;13.60;99.90;;;;;;5068293;28;20847;-81
2022/10/01 05:15:02;;;;;;;3.27;2.50;;;13.70;99.90;;;;;;5074015;28;20212;-81
2022/10/01 05:17:27;;;;;;;7.97;1.60;;;13.70;99.90;;;;;;5071232;28;20381;-83
2022/10/01 05:19:53;;;;;;;8.23;2.23;;;13.80;99.90;;;;;;5069226;28;20290;-80
2022/10/01 05:22:19;;;;;;;10.00;2.37;;;13.80;99.90;;;;;;5069167;28;20256;-82
2022/10/01 05:24:45;;;;;;;6.87;2.30;;;13.80;99.90;;;;;;5052005;28;20290;-82
2022/10/01 05:27:13;;;;;;;4.77;2.30;;;13.80;99.90;;;;;;5072602;28;20228;-80
2022/10/01 05:29:40;;;;;;;4.50;2.40;;;13.80;99.90;;;;;;5070454;28;20217;-82
2022/10/01 05:32:07;;;;;;;5.27;1.70;;;13.70;99.90;;;;;;5064787;28;20744;-79
2022/10/01 05:34:34;;;;;;;5.30;2.57;;;13.70;99.90;;;;;;5070886;28;20795;-81
2022/10/01 05:37:01;;;;;;;5.03;1.93;;;13.70;99.90;;;;;;5069835;28;20375;-81
2022/10/01 05:39:31;;;;;;;7.10;2.27;;;13.70;99.90;;;;;;5073020;28;20317;-80
2022/10/01 05:41:57;;;;;;;6.77;1.77;;;13.60;99.90;;;;;;5069891;28;20196;-82
2022/10/01 05:44:24;;;;;;;1.20;1.10;;;13.60;99.90;;;;;;5066903;28;20178;-79
2022/10/01 05:46:51;;;;;;;4.00;2.40;;;13.60;99.90;;;;;;5072072;28;20480;-80
2022/10/01 05:49:18;;;;;;;11.30;1.90;;;13.60;99.90;;;;;;5066025;28;20221;-84
2022/10/01 05:51:44;;;;;;;4.17;1.67;;;13.60;99.90;;;;;;5072926;28;20265;-81
2022/10/01 05:54:11;;;;;;;3.50;1.70;;;13.60;99.90;;;;;;5067944;28;20217;-80
2022/10/01 05:56:37;;;;;;;4.70;0.87;;;13.60;99.90;;;;;;5070913;28;20752;-80
2022/10/01 05:59:03;;;;;;;4.20;2.90;;;13.70;99.90;;;;;;5054470;28;20659;-80
2022/10/01 06:01:31;;;;;;;3.80;2.30;;;13.70;99.90;;;;;;5069737;28;20316;-79
2022/10/01 06:03:57;;;;;;;10.83;2.13;;;13.60;99.90;;;;;;5068732;28;20205;-80
2022/10/01 06:06:24;;;;;;;5.20;2.87;;;13.60;99.90;;;;;;5068575;28;20217;-79
2022/10/01 06:08:50;;;;;;;6.80;0.97;;;13.60;99.90;;;;;;5068646;28;20189;-79
2022/10/01 06:11:16;;;;;;;5.20;1.83;;;13.60;99.90;;;;;;5067583;28;20637;-83
2022/10/01 06:13:45;;;;;;;5.17;1.27;;;13.60;99.90;;;;;;5067030;28;20221;-80
2022/10/01 06:16:12;;;;;;;6.80;2.10;;;13.70;99.90;;;;;;5070165;28;20661;-79
2022/10/01 06:18:38;;;;;;;4.50;2.13;;;13.80;99.90;;;;;;5069421;28;20235;-80
2022/10/01 06:21:04;;;;;;;3.90;0.77;;;14.00;99.90;;;;;;5070666;28;20436;-82
2022/10/01 06:23:30;;;;;;;6.33;1.50;;;14.10;99.90;;;;;;5075043;28;20689;-83
2022/10/01 06:25:59;;;;;;;6.93;1.50;;;14.40;99.90;;;;;;5072722;28;20306;-82
2022/10/01 06:28:25;;;;;;;3.57;1.40;;;14.80;99.90;;;;;;5073536;28;20674;-82
2022/10/01 06:30:51;;;;;;;1.37;1.13;;;14.70;99.90;;;;;;5073594;28;20212;-83
2022/10/01 06:33:17;;;;;;;1.53;1.20;;;14.70;99.90;;;;;;5072308;28;20614;-85
2022/10/01 06:35:50;;;;;;;2.03;0.80;;;14.60;99.90;;;;;;5041120;28;20343;-82
2022/10/01 06:38:18;;;;;;;7.13;1.67;;;14.40;99.90;;;;;;5074935;28;20209;-82
2022/10/01 06:40:53;;;;;;;3.93;1.20;;;14.40;99.90;;;;;;5072813;28;21711;-83
2022/10/01 06:43:20;;;;;;;3.03;1.30;;;14.40;99.90;;;;;;5075920;28;20216;-82
2022/10/01 06:45:46;;;;;;;6.33;1.70;;;15.40;99.90;;;;;;5071504;28;20240;-82
2022/10/01 06:48:14;;;;;;;2.27;2.07;;;16.50;99.90;;;;;;5074004;28;20619;-83
2022/10/01 06:50:40;;;;;;;3.23;1.50;;;17.80;99.90;;;;;;5076637;28;20193;-82
2022/10/01 06:53:06;;;;;;;7.77;1.20;;;18.90;99.90;;;;;;5074199;28;20315;-83
2022/10/01 06:55:34;;;;;;;4.67;1.17;;;19.70;99.90;;;;;;5058139;28;22112;-83
2022/10/01 06:58:11;;;;;;;1.80;0.87;;;20.60;99.90;;;;;;5072836;28;20228;-83
2022/10/01 07:00:37;;;;;;;5.37;1.13;;;21.40;99.90;;;;;;5074760;28;20216;-84
2022/10/01 07:03:10;;;;;;;6.43;1.10;;;20.70;99.90;;;;;;5072160;28;20565;-83
2022/10/01 07:05:37;;;;;;;2.97;1.30;;;20.50;99.90;;;;;;5072106;28;20689;-83
2022/10/01 07:08:03;;;;;;;9.43;1.13;;;19.60;99.90;;;;;;5073277;28;20247;-83
2022/10/01 07:10:30;;;;;;;3.17;0.97;;;19.00;99.90;;;;;;5072745;28;20335;-84
2022/10/01 07:13:08;;;;;;;5.60;1.10;;;18.50;99.90;;;;;;5071025;28;20235;-83
2022/10/01 07:15:34;;;;;;;8.00;1.20;;;18.20;99.90;;;;;;5071797;28;20241;-84
2022/10/01 07:18:00;;;;;;;6.27;1.27;;;17.70;99.90;;;;;;5072118;28;20203;-82
2022/10/01 07:20:26;;;;;;;9.47;2.40;;;17.50;99.90;;;;;;5075132;28;20196;-82
2022/10/01 07:22:57;;;;;;;3.97;1.30;;;18.20;99.90;;;;;;5074782;28;20881;-83
2022/10/01 07:25:24;;;;;;;4.70;0.97;;;19.00;99.90;;;;;;5056392;28;20252;-83
2022/10/01 07:28:03;;;;;;;10.73;2.30;;;20.60;99.90;;;;;;5071871;28;20224;-81
2022/10/01 07:30:29;;;;;;;6.03;1.07;;;21.90;99.90;;;;;;5072365;28;20686;-80
2022/10/01 07:32:54;;;;;;;3.07;1.13;;;22.30;99.90;;;;;;5055994;28;20201;-83
2022/10/01 07:35:20;;;;;;;4.27;1.07;;;23.30;99.90;;;;;;5072089;28;20604;-82
2022/10/01 07:37:47;;;;;;;7.43;2.00;;;24.00;99.90;;;;;;5073460;28;20228;-83
2022/10/01 07:40:15;;;;;;;5.93;1.60;;;25.30;99.90;;;;;;5072866;28;20255;-82
2022/10/01 07:42:41;;;;;;;6.53;1.97;;;26.20;99.90;;;;;;5071228;28;20254;-82
2022/10/01 07:45:07;;;;;;;9.77;1.47;;;26.70;99.90;;;;;;5071074;28;20189;-82
2022/10/01 07:47:33;;;;;;;6.57;1.30;;;25.60;99.90;;;;;;5077486;28;20197;-83
2022/10/01 07:49:59;;;;;;;5.83;1.53;;;25.80;99.90;;;;;;5076571;28;20213;-83
2022/10/01 07:52:25;;;;;;;5.40;1.93;;;25.30;99.90;;;;;;5077443;28;20258;-83
2022/10/01 07:54:50;;;;;;;6.07;1.73;;;25.80;99.90;;;;;;5077075;28;20282;-83
2022/10/01 07:57:16;;;;;;;9.98;1.20;;;25.90;99.90;;;;;;5076146;28;20693;-83
2022/10/01 07:59:42;;;;;;;2.47;0.82;;;25.50;99.90;;;;;;5080013;28;20223;-83
2022/10/01 08:02:16;;;;;;;2.88;1.17;;;25.80;99.90;;;;;;5075980;28;20225;-82
2022/10/01 08:07:26;;;;;;;8.13;1.55;;;24.90;99.90;;;;;;5077661;28;20269;-82
2022/10/01 08:09:52;;;;;;;0.95;0.57;;;22.50;99.90;;;;;;5071975;28;20347;-82
2022/10/01 08:12:18;;;;;;;2.90;1.70;;;19.90;99.90;;;;;;5072121;28;20597;-83
2022/10/01 08:14:46;;;;;;;3.10;2.03;;;18.30;99.90;;;;;;5074321;28;20196;-81
2022/10/01 08:17:13;;;;;;;6.17;1.00;;;17.60;99.90;;;;;;5076102;28;20285;-80
2022/10/01 08:19:39;;;;;;;3.03;1.30;;;16.90;99.90;;;;;;5076353;28;20229;-82
2022/10/01 08:22:06;;;;;;;3.53;0.87;;;16.30;99.90;;;;;;5078460;28;20239;-82
2022/10/01 08:24:33;;;;;;;2.70;0.70;;;16.00;99.90;;;;;;5074242;28;20216;-82
2022/10/01 08:26:59;;;;;;;1.43;0.40;;;15.90;99.90;;;;;;5052896;28;20189;-83
2022/10/01 08:29:25;;;;;;;1.83;0.40;;;15.50;99.90;;;;;;5037780;28;20228;-82
2022/10/01 08:31:51;;;;;;;0.40;0.40;;;15.30;99.90;;;;;;5074064;28;20221;-82
2022/10/01 08:34:17;;;;;;;2.43;1.20;;;15.50;99.90;;;;;;5074130;28;20213;-82
2022/10/01 08:36:43;;;;;;;0.67;0.67;;;17.00;99.90;;;;;;5077528;28;20234;-82
2022/10/01 08:39:11;;;;;;;3.13;1.30;;;18.50;99.90;;;;;;5085130;28;20243;-85
2022/10/01 08:41:57;;;;;;;1.80;0.60;;;19.90;99.90;;;;;;5077222;28;20653;-82
2022/10/01 08:44:29;;;;;;;4.23;1.33;;;20.60;99.90;;;;;;5078661;28;20220;-84
2022/10/01 08:47:02;;;;;;;0.70;0.70;;;20.00;99.90;;;;;;5078253;28;20236;-83
2022/10/01 08:49:41;;;;;;;0.93;0.90;;;20.40;99.90;;;;;;5077522;28;20213;-83
2022/10/01 08:52:28;;;;;;;3.20;1.33;;;20.10;99.90;;;;;;5078961;28;20690;-82
2022/10/01 08:55:01;;;;;;;2.23;0.90;;;19.70;99.90;;;;;;5076526;28;20225;-82
2022/10/01 08:57:31;;;;;;;1.57;0.80;;;18.60;99.90;;;;;;5076891;28;20695;-83
2022/10/01 08:59:59;;;;;;;4.03;0.70;;;18.70;99.90;;;;;;5075685;28;20635;-82
2022/10/01 09:02:28;;;;;;;3.17;0.40;;;18.30;99.90;;;;;;5073996;28;20190;-82
2022/10/01 09:05:03;;;;;;;1.03;0.60;;;17.30;99.90;;;;;;5074139;28;20231;-82
2022/10/01 09:07:41;;;;;;;1.33;1.07;;;16.40;99.90;;;;;;5071141;28;20216;-83
2022/10/01 09:10:27;;;;;;;0.97;0.87;;;15.30;99.90;;;;;;5073163;28;20215;-81
2022/10/01 09:13:12;;;;;;;0.70;0.50;;;14.70;99.90;;;;;;5074600;28;20232;-83
2022/10/01 09:15:48;;;;;;;0.83;0.30;;;14.60;99.90;;;;;;5073084;28;20218;-81
2022/10/01 09:18:39;;;;;;;0.40;0.40;;;14.40;99.90;;;;;;5075225;28;20232;-81
2022/10/01 09:21:16;;;;;;;3.10;0.60;;;14.40;99.90;;;;;;5070371;28;20276;-81
2022/10/01 09:24:03;;;;;;;0.67;0.50;;;14.40;99.90;;;;;;5090481;28;20177;-83
2022/10/01 09:26:30;;;;;;;3.50;0.80;;;14.70;99.90;;;;;;5072248;28;20259;-82
2022/10/01 09:29:01;;;;;;;3.03;1.00;;;14.90;99.90;;;;;;5074684;28;20346;-82
2022/10/01 09:31:34;;;;;;;2.80;0.60;;;15.30;99.90;;;;;;5074793;28;20221;-81
2022/10/01 09:34:13;;;;;;;0.33;0.27;;;15.50;99.90;;;;;;5075222;28;20224;-81
2022/10/01 09:37:20;;;;;;;1.70;1.23;;;15.30;99.90;;;;;;5072592;28;20686;-81
2022/10/01 09:40:15;;;;;;;0.93;0.47;;;15.10;99.90;;;;;;5075097;28;20746;-82
2022/10/01 09:42:41;;;;;;;0.30;0.23;;;14.30;99.90;;;;;;5073377;28;20212;-82
2022/10/01 09:45:12;;;;;;;0.50;0.50;;;13.60;99.90;;;;;;5075407;28;20216;-82
2022/10/01 09:47:42;;;;;;;0.50;0.50;;;13.50;99.90;;;;;;5074148;28;20189;-81
2022/10/01 09:50:14;;;;;;;0.70;0.60;;;13.40;99.90;;;;;;5074797;28;20213;-80
2022/10/01 09:52:42;;;;;;;2.23;0.77;;;13.30;99.90;;;;;;5075638;28;20225;-81
2022/10/01 09:55:35;;;;;;;2.17;0.60;;;13.30;99.90;;;;;;5073543;28;20221;-83
2022/10/01 09:58:23;;;;;;;2.90;0.63;;;13.20;99.90;;;;;;5077230;28;20236;-82
2022/10/01 10:00:50;;;;;;;1.60;0.87;;;13.30;99.90;;;;;;5075035;28;20658;-82
2022/10/01 10:03:27;;;;;;;1.90;0.60;;;13.40;99.90;;;;;;5074244;28;20224;-81
2022/10/01 10:05:53;;;;;;;3.73;0.53;;;13.50;99.90;;;;;;5073899;28;20195;-81
2022/10/01 10:08:27;;;;;;;5.57;0.83;;;13.60;99.90;;;;;;5076242;28;20197;-82
2022/10/01 10:11:02;;;;;;;2.53;0.97;;;13.60;99.90;;;;;;5074292;28;20222;-80
2022/10/01 10:13:37;;;;;;;8.13;0.87;;;13.60;99.90;;;;;;5073284;28;20688;-81
2022/10/01 10:16:48;;;;;;;1.13;0.90;;;13.30;99.90;;;;;;5073151;28;20232;-81
2022/10/01 10:19:24;;;;;;;2.23;1.53;;;13.60;99.90;;;;;;5071455;28;20229;-80
2022/10/01 10:21:59;;;;;;;1.30;1.20;;;13.90;99.90;;;;;;5076089;28;20232;-82
2022/10/01 10:24:33;;;;;;;4.63;1.17;;;14.00;99.90;;;;;;5075479;28;20270;-81
2022/10/01 10:27:00;;;;;;;4.83;1.57;;;14.20;99.90;;;;;;5092704;28;20606;-83
2022/10/01 10:29:31;;;;;;;5.30;1.23;;;14.20;99.90;;;;;;5077014;28;20184;-81
2022/10/01 10:32:01;;;;;;;2.83;1.03;;;14.30;99.90;;;;;;5073507;28;20614;-80
2022/10/01 10:34:42;;;;;;;2.23;0.67;;;14.70;99.90;;;;;;5074096;28;20547;-80
2022/10/01 10:37:14;;;;;;;4.63;1.30;;;15.40;99.90;;;;;;5090976;28;20726;-81
2022/10/01 10:39:45;;;;;;;1.90;1.33;;;16.60;99.90;;;;;;5074494;28;20274;-81
2022/10/01 10:42:14;;;;;;;3.50;1.27;;;17.10;99.90;;;;;;5071072;28;20229;-84
2022/10/01 10:44:43;;;;;;;6.13;1.33;;;17.50;99.90;;;;;;5081924;28;20178;-81
2022/10/01 10:47:13;;;;;;;7.40;1.10;;;17.90;99.90;;;;;;5073052;28;20295;-82
2022/10/01 10:50:00;;;;;;;5.83;1.97;;;19.10;99.90;;;;;;5072044;28;20226;-82
2022/10/01 10:52:35;;;;;;;2.83;0.97;;;19.40;99.90;;;;;;5073127;28;20224;-81
2022/10/01 10:55:22;;;;;;;1.97;0.90;;;18.80;99.90;;;;;;5074329;28;20224;-83
2022/10/01 10:57:48;;;;;;;2.23;0.73;;;18.30;99.90;;;;;;5090087;28;20348;-82
2022/10/01 11:00:17;;;;;;;5.20;1.07;;;18.40;99.90;;;;;;5072356;28;20236;-84
2022/10/01 11:02:56;;;;;;;2.23;1.07;;;18.00;99.90;;;;;;5074969;28;20188;-84
2022/10/01 11:05:25;;;;;;;4.80;0.80;;;17.50;99.90;;;;;;5073801;28;20257;-81
2022/10/01 11:07:58;;;;;;;5.23;0.90;;;17.20;99.90;;;;;;5073631;28;20216;-81
2022/10/01 11:10:39;;;;;;;1.50;1.03;;;17.00;99.90;;;;;;5074115;28;20217;-83
2022/10/01 11:13:38;;;;;;;0.80;0.50;;;16.80;99.90;;;;;;5074969;28;20233;-83
2022/10/01 11:16:23;;;;;;;1.70;0.67;;;16.70;99.90;;;;;;5073932;28;20224;-81
2022/10/01 11:19:07;;;;;;;3.47;0.97;;;16.60;99.90;;;;;;5074404;28;20220;-82
2022/10/01 11:21:36;;;;;;;0.87;0.60;;;16.40;99.90;;;;;;5076165;28;20220;-82
2022/10/01 11:24:07;;;;;;;5.10;0.87;;;16.40;99.90;;;;;;5075850;28;20193;-81
2022/10/01 11:26:42;;;;;;;5.17;1.20;;;16.30;99.90;;;;;;5077249;28;20181;-81
2022/10/01 11:29:20;;;;;;;1.07;0.40;;;16.20;99.90;;;;;;5074949;28;20299;-83
2022/10/01 11:32:18;;;;;;;0.60;0.50;;;16.00;99.90;;;;;;5074295;28;20221;-82
2022/10/01 11:35:12;;;;;;;2.83;0.90;;;16.00;99.90;;;;;;5071649;28;20227;-81
2022/10/01 11:37:49;;;;;;;2.07;0.80;;;16.50;99.90;;;;;;5072972;28;20698;-82
2022/10/01 11:40:26;;;;;;;10.30;1.37;;;17.10;99.90;;;;;;5075362;28;20219;-82
2022/10/01 11:42:59;;;;;;;0.17;0.07;;;16.80;99.90;;;;;;5090881;28;20247;-82
2022/10/01 11:45:30;;;;;;;1.73;1.00;;;16.70;99.90;;;;;;5073652;28;20208;-82
2022/10/01 11:48:05;;;;;;;6.53;1.03;;;16.70;99.90;;;;;;5076607;28;20189;-84
2022/10/01 11:50:36;;;;;;;1.90;1.13;;;16.60;99.90;;;;;;5076333;28;20190;-82
2022/10/01 11:53:01;;;;;;;3.10;0.80;;;16.70;99.90;;;;;;5072129;28;20212;-82
2022/10/01 11:58:49;;;;;;;2.10;0.53;;;17.20;99.90;;;;;;5074412;28;20228;-83
2022/10/01 12:01:37;;;;;;;1.40;0.50;;;17.10;99.90;;;;;;5073086;28;20315;-83
2022/10/01 12:04:05;;;;;;;7.23;2.17;;;17.00;99.90;;;;;;5076013;28;20227;-82
2022/10/01 12:06:39;;;;;;;5.13;1.37;;;16.70;99.90;;;;;;5072395;28;20250;-83
2022/10/01 12:09:13;;;;;;;7.10;1.17;;;16.60;99.90;;;;;;5071995;28;20190;-82
2022/10/01 12:11:52;;;;;;;5.13;1.00;;;16.50;99.90;;;;;;5075162;28;20323;-82
2022/10/01 12:14:24;;;;;;;4.50;0.77;;;16.20;99.90;;;;;;5073210;28;20693;-83
2022/10/01 12:17:00;;;;;;;10.70;0.80;;;15.90;99.90;;;;;;5072675;28;20217;-83
2022/10/01 12:19:36;;;;;;;0.67;0.67;;;15.70;99.90;;;;;;5072467;28;20232;-84
2022/10/01 12:22:36;;;;;;;3.97;0.90;;;15.80;99.90;;;;;;5073304;28;20682;-82
2022/10/01 12:25:02;;;;;;;1.40;0.37;;;15.80;99.90;;;;;;5024150;28;20223;-83
2022/10/01 12:27:56;;;;;;;3.10;0.63;;;15.80;99.90;;;;;;5055152;28;20217;-83
2022/10/01 12:30:24;;;;;;;4.80;1.43;;;15.90;99.90;;;;;;5073229;28;20999;-84
2022/10/01 12:33:05;;;;;;;2.67;0.87;;;16.40;99.90;;;;;;5075644;28;20661;-82
2022/10/01 12:35:40;;;;;;;8.70;2.63;;;17.00;99.90;;;;;;5077548;28;20260;-83
2022/10/01 12:38:14;;;;;;;8.47;2.23;;;17.50;99.90;;;;;;5076780;28;20262;-82
2022/10/01 12:40:50;;;;;;;3.67;2.27;;;17.90;99.90;;;;;;5077770;28;20893;-82
2022/10/01 12:43:15;;;;;;;5.90;1.10;;;17.70;99.90;;;;;;5092856;28;20230;-83
2022/10/01 12:46:01;;;;;;;4.80;1.30;;;17.20;99.90;;;;;;5075768;28;20220;-83
2022/10/01 12:48:35;;;;;;;1.53;0.97;;;17.20;99.90;;;;;;5076437;28;20221;-80
2022/10/01 12:51:06;;;;;;;1.00;0.90;;;17.40;99.90;;;;;;5075559;28;20254;-81
2022/10/01 12:53:42;;;;;;;0.57;0.33;;;16.80;99.90;;;;;;5076997;28;20177;-82
2022/10/01 12:56:29;;;;;;;1.27;0.37;;;16.30;99.90;;;;;;5074669;28;20235;-82
2022/10/01 12:59:07;;;;;;;0.20;0.20;;;15.90;99.90;;;;;;5077291;28;20225;-81
2022/10/01 13:01:39;;;;;;;1.40;0.57;;;15.50;99.90;;;;;;5074077;28;20335;-84
2022/10/01 13:04:30;;;;;;;1.47;1.07;;;15.40;99.90;;;;;;5075077;28;20271;-82
2022/10/01 13:06:55;;;;;;;6.47;1.40;;;15.40;99.90;;;;;;5073411;28;20221;-80
2022/10/01 13:09:43;;;;;;;5.73;0.83;;;15.30;99.90;;;;;;5071395;28;20224;-80
2022/10/01 13:12:42;;;;;;;7.40;1.10;;;15.30;99.90;;;;;;5073291;28;20240;-84
2022/10/01 13:15:20;;;;;;;0.87;0.80;;;15.50;99.90;;;;;;5071535;28;20201;-81